createdAt,value
2023-04-17T00:01:00.751Z,67.49
2023-04-17T00:03:27.379Z,66.23
2023-04-17T00:05:54.138Z,66.05
2023-04-17T00:08:20.697Z,66.38
2023-04-17T00:10:54.002Z,65.56
2023-04-17T00:13:26.930Z,65.12
2023-04-17T00:15:53.406Z,65.25
2023-04-17T00:18:19.828Z,64.55
2023-04-17T00:20:46.269Z,65.93
2023-04-17T00:23:12.732Z,65.25
2023-04-17T00:25:39.200Z,64.72
2023-04-17T00:28:05.906Z,63.60
2023-04-17T00:30:32.422Z,64.56
2023-04-17T00:32:58.950Z,64.68
2023-04-17T00:35:25.606Z,65.05
2023-04-17T00:37:52.088Z,64.25
2023-04-17T00:40:18.702Z,64.24
2023-04-17T00:42:45.626Z,64.41
2023-04-17T00:45:12.066Z,66.08
2023-04-17T00:47:38.862Z,66.31
2023-04-17T00:50:05.658Z,65.41
2023-04-17T00:52:32.430Z,66.23
2023-04-17T00:55:00.371Z,66.33
2023-04-17T00:57:27.181Z,67.97
2023-04-17T00:59:55.981Z,67.44
2023-04-17T01:02:23.036Z,68.61
2023-04-17T01:04:49.616Z,69.10
2023-04-17T01:07:16.539Z,69.45
2023-04-17T01:09:43.043Z,69.27
2023-04-17T01:12:23.214Z,69.87
2023-04-17T01:14:56.814Z,70.43
2023-04-17T01:17:26.127Z,70.03
2023-04-17T01:19:52.834Z,72.45
2023-04-17T01:22:22.244Z,70.96
2023-04-17T01:24:53.574Z,71.94
2023-04-17T01:27:22.420Z,69.65
2023-04-17T01:29:49.022Z,70.09
2023-04-17T01:32:17.101Z,68.75
2023-04-17T01:34:43.610Z,69.71
2023-04-17T01:37:10.111Z,69.35
2023-04-17T01:39:37.212Z,68.28
2023-04-17T01:42:03.830Z,67.61
2023-04-17T01:44:30.467Z,68.12
2023-04-17T01:46:57.097Z,68.11
2023-04-17T01:49:23.589Z,67.56
2023-04-17T01:51:50.189Z,67.66
2023-04-17T01:54:16.684Z,67.31
2023-04-17T01:56:43.163Z,66.56
2023-04-17T01:59:10.160Z,66.11
2023-04-17T02:01:36.961Z,65.67
2023-04-17T02:04:03.687Z,65.75
2023-04-17T02:06:31.980Z,65.54
2023-04-17T02:08:59.690Z,64.90
2023-04-17T02:11:26.394Z,64.18
2023-04-17T02:13:53.454Z,64.92
2023-04-17T02:16:21.769Z,64.73
2023-04-17T02:18:49.604Z,64.62
2023-04-17T02:21:16.466Z,64.16
2023-04-17T02:23:43.364Z,64.13
2023-04-17T02:26:09.934Z,64.48
2023-04-17T02:28:36.454Z,63.88
2023-04-17T02:31:05.497Z,62.85
2023-04-17T02:33:31.993Z,63.82
2023-04-17T02:35:58.804Z,63.47
2023-04-17T02:38:34.197Z,62.86
2023-04-17T02:41:00.875Z,62.71
2023-04-17T02:43:29.969Z,64.52
2023-04-17T02:45:56.552Z,63.08
2023-04-17T02:48:24.572Z,62.44
2023-04-17T02:50:51.093Z,63.02
2023-04-17T02:53:19.477Z,62.59
2023-04-17T02:55:47.054Z,62.72
2023-04-17T02:58:15.121Z,62.36
2023-04-17T03:00:41.712Z,60.74
2023-04-17T03:03:13.624Z,62.14
2023-04-17T03:05:40.413Z,62.26
2023-04-17T03:08:08.134Z,62.44
2023-04-17T03:10:42.657Z,61.16
2023-04-17T03:13:09.165Z,62.73
2023-04-17T03:15:36.356Z,61.88
2023-04-17T03:18:03.101Z,61.74
2023-04-17T03:20:30.086Z,62.19
2023-04-17T03:22:56.718Z,61.92
2023-04-17T03:25:23.180Z,61.56
2023-04-17T03:27:52.864Z,62.55
2023-04-17T03:30:22.008Z,61.28
2023-04-17T03:32:50.748Z,61.43
2023-04-17T03:35:17.242Z,62.38
2023-04-17T03:37:43.975Z,60.89
2023-04-17T03:40:12.252Z,61.84
2023-04-17T03:42:38.784Z,61.72
2023-04-17T03:45:05.638Z,62.69
2023-04-17T03:47:33.642Z,61.05
2023-04-17T03:50:00.343Z,61.32
2023-04-17T03:52:31.108Z,61.10
2023-04-17T03:54:58.853Z,61.92
2023-04-17T03:57:26.324Z,61.52
2023-04-17T03:59:53.325Z,61.13
2023-04-17T04:02:20.704Z,62.61
2023-04-17T04:04:50.466Z,63.58
2023-04-17T04:07:17.276Z,62.36
2023-04-17T04:09:44.667Z,61.73
2023-04-17T04:12:11.394Z,61.70
2023-04-17T04:14:42.035Z,61.93
2023-04-17T04:17:09.674Z,60.88
2023-04-17T04:19:36.983Z,61.01
2023-04-17T04:22:06.745Z,60.42
2023-04-17T04:24:40.858Z,62.14
2023-04-17T04:27:07.606Z,61.81
2023-04-17T04:29:37.629Z,61.35
2023-04-17T04:32:09.605Z,63.24
2023-04-17T04:34:42.020Z,60.57
2023-04-17T04:37:08.603Z,60.57
2023-04-17T04:39:39.893Z,61.48
2023-04-17T04:42:09.954Z,61.77
2023-04-17T04:45:04.507Z,61.29
2023-04-17T04:47:32.046Z,62.27
2023-04-17T04:49:58.624Z,62.02
2023-04-17T04:52:26.373Z,61.42
2023-04-17T04:54:56.079Z,60.78
2023-04-17T04:57:24.005Z,61.15
2023-04-17T04:59:53.768Z,61.08
2023-04-17T05:02:28.806Z,61.42
2023-04-17T05:04:55.494Z,60.40
2023-04-17T05:07:22.713Z,61.72
2023-04-17T05:09:50.098Z,61.13
2023-04-17T05:12:16.897Z,60.83
2023-04-17T05:14:44.602Z,60.75
2023-04-17T05:17:11.134Z,61.40
2023-04-17T05:19:38.520Z,62.82
2023-04-17T05:22:08.474Z,61.99
2023-04-17T05:24:42.698Z,62.06
2023-04-17T05:27:09.534Z,60.32
2023-04-17T05:29:37.334Z,61.12
2023-04-17T05:32:04.113Z,60.98
2023-04-17T05:34:52.421Z,61.20
2023-04-17T05:37:23.056Z,61.02
2023-04-17T05:39:49.601Z,60.69
2023-04-17T05:42:16.105Z,60.43
2023-04-17T05:44:42.704Z,60.49
2023-04-17T05:47:09.191Z,60.86
2023-04-17T05:49:36.713Z,60.75
2023-04-17T05:52:03.515Z,60.16
2023-04-17T05:54:30.393Z,61.24
2023-04-17T05:56:57.893Z,60.35
2023-04-17T05:59:25.277Z,60.65
2023-04-17T06:01:52.649Z,60.94
2023-04-17T06:04:22.262Z,60.71
2023-04-17T06:06:50.094Z,60.07
2023-04-17T06:09:16.765Z,60.10
2023-04-17T06:11:43.270Z,58.93
2023-04-17T06:14:09.746Z,59.37
2023-04-17T06:16:37.851Z,59.04
2023-04-17T06:19:04.444Z,59.29
2023-04-17T06:21:32.016Z,58.66
2023-04-17T06:24:00.363Z,59.17
2023-04-17T06:26:26.817Z,58.27
2023-04-17T06:28:53.393Z,58.72
2023-04-17T06:31:19.989Z,58.66
2023-04-17T06:33:49.788Z,58.53
2023-04-17T06:36:17.840Z,58.96
2023-04-17T06:38:49.041Z,58.34
2023-04-17T06:41:17.721Z,58.28
2023-04-17T06:43:44.460Z,57.29
2023-04-17T06:46:13.640Z,56.96
2023-04-17T06:48:40.155Z,56.97
2023-04-17T06:51:06.620Z,57.83
2023-04-17T06:53:33.067Z,57.11
2023-04-17T06:55:59.764Z,57.39
2023-04-17T06:58:26.317Z,56.47
2023-04-17T07:00:52.751Z,55.82
2023-04-17T07:03:19.544Z,55.66
2023-04-17T07:05:46.498Z,56.79
2023-04-17T07:08:13.490Z,56.26
2023-04-17T07:10:39.965Z,54.94
2023-04-17T07:13:06.963Z,54.73
2023-04-17T07:15:33.527Z,53.86
2023-04-17T07:18:00.244Z,54.23
2023-04-17T07:20:26.878Z,54.03
2023-04-17T07:22:53.378Z,53.80
2023-04-17T07:25:20.050Z,52.66
2023-04-17T07:27:46.602Z,54.32
2023-04-17T07:30:13.237Z,54.03
2023-04-17T07:32:39.733Z,51.31
2023-04-17T07:35:06.468Z,51.57
2023-04-17T07:37:33.972Z,52.41
2023-04-17T07:40:00.420Z,52.47
2023-04-17T07:42:28.431Z,53.14
2023-04-17T07:44:54.848Z,52.36
2023-04-17T07:47:21.600Z,52.27
2023-04-17T07:49:49.166Z,52.05
2023-04-17T07:52:17.658Z,50.76
2023-04-17T07:54:44.582Z,51.24
2023-04-17T07:57:11.188Z,49.89
2023-04-17T07:59:37.712Z,51.91
2023-04-17T08:02:04.305Z,50.26
2023-04-17T08:04:31.221Z,50.03
2023-04-17T08:06:57.808Z,49.30
2023-04-17T08:09:24.319Z,49.33
2023-04-17T08:11:57.469Z,50.21
2023-04-17T08:14:24.946Z,48.63
2023-04-17T08:16:51.734Z,48.76
2023-04-17T08:19:18.309Z,48.20
2023-04-17T08:21:47.050Z,49.03
2023-04-17T08:24:13.486Z,48.52
2023-04-17T08:26:40.013Z,49.32
2023-04-17T08:29:07.347Z,49.21
2023-04-17T08:31:36.628Z,48.06
2023-04-17T08:34:13.622Z,48.17
2023-04-17T08:36:41.384Z,46.66
2023-04-17T08:39:09.940Z,46.50
2023-04-17T08:41:43.025Z,47.18
2023-04-17T08:44:09.512Z,47.07
2023-04-17T08:46:36.370Z,47.65
2023-04-17T08:49:03.341Z,48.36
2023-04-17T08:51:29.904Z,47.05
2023-04-17T08:53:56.335Z,44.25
2023-04-17T08:56:22.798Z,45.47
2023-04-17T08:58:49.312Z,45.16
2023-04-17T09:01:16.589Z,45.67
2023-04-17T09:03:44.287Z,46.38
2023-04-17T09:06:11.348Z,46.18
2023-04-17T09:08:38.194Z,46.19
2023-04-17T09:11:04.873Z,45.12
2023-04-17T09:13:40.205Z,46.78
2023-04-17T09:16:07.837Z,43.01
2023-04-17T09:18:35.028Z,43.23
2023-04-17T09:21:02.342Z,43.30
2023-04-17T09:23:29.796Z,43.92
2023-04-17T09:26:07.332Z,44.64
2023-04-17T09:28:39.252Z,43.17
2023-04-17T09:31:18.428Z,44.21
2023-04-17T09:33:58.391Z,42.23
2023-04-17T09:36:25.085Z,42.62
2023-04-17T09:38:51.726Z,43.34
2023-04-17T09:41:28.960Z,41.91
2023-04-17T09:43:56.537Z,41.78
2023-04-17T09:46:40.555Z,40.67
2023-04-17T09:49:10.894Z,41.49
2023-04-17T09:51:37.569Z,41.38
2023-04-17T09:54:05.581Z,41.42
2023-04-17T09:56:33.802Z,40.71
2023-04-17T09:59:02.824Z,41.18
2023-04-17T10:01:30.460Z,41.60
2023-04-17T10:03:58.153Z,40.59
2023-04-17T10:06:26.715Z,39.26
2023-04-17T10:08:53.750Z,39.08
2023-04-17T10:11:22.012Z,38.14
2023-04-17T10:13:52.945Z,37.24
2023-04-17T10:16:19.540Z,38.65
2023-04-17T10:18:46.154Z,37.76
2023-04-17T10:21:20.089Z,40.11
2023-04-17T10:23:46.643Z,39.46
2023-04-17T10:26:33.397Z,41.43
2023-04-17T10:28:59.894Z,40.20
2023-04-17T10:31:45.296Z,40.55
2023-04-17T10:34:31.722Z,42.06
2023-04-17T10:36:58.300Z,40.87
2023-04-17T10:39:24.712Z,42.08
2023-04-17T10:42:03.318Z,40.93
2023-04-17T10:44:33.636Z,41.96
2023-04-17T10:47:05.980Z,41.58
2023-04-17T10:49:50.955Z,41.44
2023-04-17T10:52:32.855Z,40.29
2023-04-17T10:55:08.259Z,41.32
2023-04-17T10:57:53.490Z,41.49
2023-04-17T11:00:21.513Z,41.54
2023-04-17T11:02:50.339Z,41.42
2023-04-17T11:05:17.498Z,42.84
2023-04-17T11:07:44.603Z,41.96
2023-04-17T11:10:12.300Z,42.95
2023-04-17T11:12:39.311Z,41.56
2023-04-17T11:15:06.350Z,42.65
2023-04-17T11:17:33.030Z,42.01
2023-04-17T11:19:59.997Z,42.01
2023-04-17T11:22:27.919Z,42.07
2023-04-17T11:24:54.366Z,41.69
2023-04-17T11:27:22.240Z,39.76
2023-04-17T11:29:48.712Z,40.74
2023-04-17T11:32:15.954Z,41.97
2023-04-17T11:34:42.534Z,41.18
2023-04-17T11:37:13.088Z,39.79
2023-04-17T11:39:41.827Z,41.27
2023-04-17T11:42:08.379Z,40.43
2023-04-17T11:44:34.831Z,41.73
2023-04-17T11:47:01.974Z,41.52
2023-04-17T11:49:29.449Z,41.03
2023-04-17T11:51:57.704Z,40.62
2023-04-17T11:54:27.821Z,41.41
2023-04-17T11:57:01.657Z,42.26
2023-04-17T11:59:31.686Z,41.06
2023-04-17T12:02:00.726Z,41.71
2023-04-17T12:04:29.194Z,40.29
2023-04-17T12:06:57.916Z,39.55
2023-04-17T12:09:31.181Z,39.64
2023-04-17T12:12:01.730Z,41.19
2023-04-17T12:14:28.244Z,41.55
2023-04-17T12:16:54.716Z,40.26
2023-04-17T12:19:21.333Z,40.75
2023-04-17T12:21:48.040Z,40.17
2023-04-17T12:24:14.768Z,39.71
2023-04-17T12:26:47.566Z,40.48
2023-04-17T12:29:14.838Z,40.10
2023-04-17T12:31:41.626Z,39.57
2023-04-17T12:34:08.135Z,40.29
2023-04-17T12:36:34.887Z,39.90
2023-04-17T12:39:01.598Z,39.64
2023-04-17T12:41:28.229Z,41.05
2023-04-17T12:43:54.970Z,39.66
2023-04-17T12:46:21.698Z,39.87
2023-04-17T12:48:48.289Z,39.91
2023-04-17T12:51:14.920Z,39.45
2023-04-17T12:53:41.635Z,40.39
2023-04-17T12:56:08.202Z,39.61
2023-04-17T12:58:34.669Z,39.23
2023-04-17T13:01:01.193Z,40.63
2023-04-17T13:03:27.889Z,39.83
2023-04-17T13:05:54.573Z,39.69
2023-04-17T13:08:21.087Z,41.96
2023-04-17T13:10:47.590Z,40.30
2023-04-17T13:13:14.045Z,39.49
2023-04-17T13:15:40.715Z,39.80
2023-04-17T13:18:08.400Z,41.90
2023-04-17T13:20:35.235Z,40.84
2023-04-17T13:23:01.798Z,41.23
2023-04-17T13:25:29.314Z,41.46
2023-04-17T13:27:55.795Z,40.67
2023-04-17T13:30:22.892Z,42.44
2023-04-17T13:32:49.411Z,41.89
2023-04-17T13:35:15.993Z,40.74
2023-04-17T13:37:42.897Z,42.41
2023-04-17T13:40:10.837Z,41.94
2023-04-17T13:42:37.422Z,41.85
2023-04-17T13:45:04.520Z,41.85
2023-04-17T13:47:31.062Z,42.34
2023-04-17T13:49:57.549Z,42.75
2023-04-17T13:52:24.063Z,41.46
2023-04-17T13:54:50.586Z,42.63
2023-04-17T13:57:19.965Z,42.37
2023-04-17T13:59:46.569Z,41.93
2023-04-17T14:02:13.188Z,41.02
2023-04-17T14:04:39.810Z,41.67
2023-04-17T14:07:06.482Z,41.34
2023-04-17T14:09:32.958Z,41.59
2023-04-17T14:12:02.393Z,41.38
2023-04-17T14:14:28.828Z,41.76
2023-04-17T14:16:55.274Z,40.32
2023-04-17T14:19:21.857Z,40.14
2023-04-17T14:21:48.341Z,40.36
2023-04-17T14:24:14.834Z,41.63
2023-04-17T14:26:42.062Z,40.45
2023-04-17T14:29:10.623Z,41.24
2023-04-17T14:31:37.517Z,40.08
2023-04-17T14:34:04.020Z,40.51
2023-04-17T14:36:31.110Z,41.73
2023-04-17T14:38:58.536Z,41.04
2023-04-17T14:41:29.734Z,41.00
2023-04-17T14:43:56.531Z,40.75
2023-04-17T14:46:23.233Z,42.35
2023-04-17T14:48:55.515Z,41.77
2023-04-17T14:51:25.252Z,40.46
2023-04-17T14:53:52.983Z,40.35
2023-04-17T14:56:21.345Z,39.21
2023-04-17T14:58:47.993Z,39.81
2023-04-17T15:01:14.466Z,39.35
2023-04-17T15:03:41.693Z,37.71
2023-04-17T15:06:09.643Z,37.06
2023-04-17T15:08:36.096Z,36.94
2023-04-17T15:11:02.552Z,36.27
2023-04-17T15:13:29.057Z,37.86
2023-04-17T15:15:55.569Z,35.95
2023-04-17T15:18:22.087Z,36.29
2023-04-17T15:20:48.555Z,37.22
2023-04-17T15:23:17.430Z,36.84
2023-04-17T15:25:43.893Z,36.62
2023-04-17T15:28:10.499Z,36.90
2023-04-17T15:30:36.945Z,36.89
2023-04-17T15:33:03.581Z,37.12
2023-04-17T15:35:30.153Z,36.68
2023-04-17T15:37:56.952Z,38.30
2023-04-17T15:40:23.531Z,36.15
2023-04-17T15:42:50.005Z,37.67
2023-04-17T15:45:16.448Z,37.43
2023-04-17T15:47:42.913Z,36.91
2023-04-17T15:50:09.785Z,37.45
2023-04-17T15:52:36.268Z,37.61
2023-04-17T15:55:02.774Z,38.75
2023-04-17T15:57:29.226Z,38.45
2023-04-17T15:59:55.701Z,38.00
2023-04-17T16:02:22.563Z,39.01
2023-04-17T16:04:49.109Z,38.85
2023-04-17T16:07:16.475Z,38.63
2023-04-17T16:09:44.641Z,39.17
2023-04-17T16:12:11.233Z,39.33
2023-04-17T16:14:38.302Z,39.46
2023-04-17T16:17:04.978Z,39.36
2023-04-17T16:19:32.111Z,39.62
2023-04-17T16:21:58.656Z,40.47
2023-04-17T16:24:25.593Z,40.26
2023-04-17T16:26:57.179Z,40.43
2023-04-17T16:29:24.496Z,40.75
2023-04-17T16:31:51.625Z,41.58
2023-04-17T16:34:18.195Z,41.56
2023-04-17T16:36:45.956Z,41.28
2023-04-17T16:39:12.867Z,41.41
2023-04-17T16:41:39.589Z,41.06
2023-04-17T16:44:06.133Z,42.00
2023-04-17T16:46:45.607Z,42.12
2023-04-17T16:49:19.182Z,41.88
2023-04-17T16:51:45.673Z,42.46
2023-04-17T16:54:12.384Z,42.47
2023-04-17T16:56:39.043Z,42.31
2023-04-17T16:59:05.702Z,43.05
2023-04-17T17:01:32.221Z,43.53
2023-04-17T17:03:58.905Z,43.15
2023-04-17T17:06:25.380Z,43.13
2023-04-17T17:08:54.588Z,43.89
2023-04-17T17:11:21.947Z,44.20
2023-04-17T17:13:49.343Z,44.62
2023-04-17T17:16:16.478Z,44.63
2023-04-17T17:18:43.170Z,45.61
2023-04-17T17:21:09.945Z,46.06
2023-04-17T17:23:37.869Z,45.49
2023-04-17T17:26:04.620Z,45.81
2023-04-17T17:28:31.381Z,45.88
2023-04-17T17:31:05.369Z,47.12
2023-04-17T17:33:32.136Z,47.45
2023-04-17T17:35:59.066Z,46.89
2023-04-17T17:38:28.449Z,46.93
2023-04-17T17:40:56.137Z,46.77
2023-04-17T17:43:22.697Z,47.86
2023-04-17T17:45:49.684Z,47.94
2023-04-17T17:48:16.997Z,47.76
2023-04-17T17:50:43.733Z,47.82
2023-04-17T17:53:10.600Z,47.93
2023-04-17T17:55:37.977Z,48.73
2023-04-17T17:58:08.523Z,48.80
2023-04-17T18:00:35.466Z,49.08
2023-04-17T18:03:02.298Z,48.38
2023-04-17T18:05:28.952Z,49.11
2023-04-17T18:07:55.507Z,48.99
2023-04-17T18:10:22.069Z,49.14
2023-04-17T18:12:49.204Z,48.89
2023-04-17T18:15:15.693Z,49.81
2023-04-17T18:17:42.206Z,50.14
2023-04-17T18:20:09.100Z,50.48
2023-04-17T18:22:36.659Z,50.49
2023-04-17T18:25:03.184Z,50.15
2023-04-17T18:27:30.872Z,50.63
2023-04-17T18:29:58.016Z,50.62
2023-04-17T18:32:24.538Z,51.01
2023-04-17T18:34:51.282Z,51.00
2023-04-17T18:37:18.362Z,50.92
2023-04-17T18:39:44.889Z,51.76
2023-04-17T18:42:11.438Z,51.46
2023-04-17T18:44:37.935Z,50.82
2023-04-17T18:47:04.575Z,51.54
2023-04-17T18:49:31.101Z,52.38
2023-04-17T18:51:57.631Z,52.87
2023-04-17T18:54:24.270Z,52.89
2023-04-17T18:56:50.902Z,52.64
2023-04-17T18:59:19.937Z,52.89
2023-04-17T19:01:46.428Z,52.55
2023-04-17T19:04:13.325Z,52.66
2023-04-17T19:06:40.183Z,52.98
2023-04-17T19:09:06.744Z,53.19
2023-04-17T19:11:33.540Z,53.46
2023-04-17T19:14:00.022Z,53.43
2023-04-17T19:16:26.649Z,54.02
2023-04-17T19:18:53.129Z,54.05
2023-04-17T19:21:19.622Z,54.11
2023-04-17T19:23:47.467Z,54.59
2023-04-17T19:26:15.756Z,54.58
2023-04-17T19:28:42.287Z,54.82
2023-04-17T19:31:08.858Z,54.95
2023-04-17T19:33:35.536Z,55.36
2023-04-17T19:36:04.948Z,55.84
2023-04-17T19:38:31.776Z,55.53
2023-04-17T19:41:17.838Z,55.45
2023-04-17T19:43:44.899Z,56.32
2023-04-17T19:46:13.380Z,56.34
2023-04-17T19:48:40.344Z,55.60
2023-04-17T19:51:06.962Z,57.04
2023-04-17T19:53:37.904Z,56.42
2023-04-17T19:56:07.627Z,55.96
2023-04-17T19:58:35.182Z,55.83
2023-04-17T20:01:01.660Z,55.89
2023-04-17T20:03:29.505Z,56.12
2023-04-17T20:05:57.350Z,55.87
2023-04-17T20:08:24.224Z,55.07
2023-04-17T20:10:50.776Z,55.39
2023-04-17T20:13:17.322Z,54.96
2023-04-17T20:15:43.808Z,54.96
2023-04-17T20:18:11.686Z,55.45
2023-04-17T20:20:39.090Z,55.72
2023-04-17T20:23:05.809Z,56.63
2023-04-17T20:25:32.324Z,57.39
2023-04-17T20:27:58.912Z,56.63
2023-04-17T20:30:25.481Z,56.18
2023-04-17T20:32:52.152Z,57.07
2023-04-17T20:35:23.818Z,56.70
2023-04-17T20:37:51.580Z,56.68
2023-04-17T20:40:18.711Z,56.94
2023-04-17T20:42:45.477Z,56.45
2023-04-17T20:45:12.274Z,57.66
2023-04-17T20:47:49.327Z,57.33
2023-04-17T20:50:22.327Z,57.24
2023-04-17T20:52:48.841Z,57.28
2023-04-17T20:55:18.213Z,57.69
2023-04-17T20:57:44.987Z,58.64
2023-04-17T21:00:12.100Z,58.46
2023-04-17T21:02:38.807Z,58.68
2023-04-17T21:05:06.511Z,58.93
2023-04-17T21:07:33.060Z,59.20
2023-04-17T21:09:59.568Z,59.86
2023-04-17T21:12:26.097Z,60.04
2023-04-17T21:14:52.616Z,59.47
2023-04-17T21:17:19.199Z,60.21
2023-04-17T21:19:46.114Z,60.18
2023-04-17T21:22:13.054Z,60.42
2023-04-17T21:24:39.737Z,60.22
2023-04-17T21:27:06.224Z,61.67
2023-04-17T21:29:32.675Z,61.18
2023-04-17T21:31:59.500Z,61.49
2023-04-17T21:34:26.256Z,60.41
2023-04-17T21:36:53.440Z,61.57
2023-04-17T21:39:20.318Z,61.54
2023-04-17T21:41:46.813Z,61.61
2023-04-17T21:44:13.470Z,61.45
2023-04-17T21:46:40.143Z,60.68
2023-04-17T21:49:06.750Z,61.40
2023-04-17T21:51:33.268Z,60.49
2023-04-17T21:53:59.728Z,60.33
2023-04-17T21:56:26.284Z,60.42
2023-04-17T21:58:52.830Z,60.28
2023-04-17T22:01:19.420Z,59.68
2023-04-17T22:03:45.921Z,59.63
2023-04-17T22:06:12.419Z,59.56
2023-04-17T22:08:39.248Z,58.81
2023-04-17T22:11:05.866Z,59.63
2023-04-17T22:13:32.301Z,59.80
2023-04-17T22:15:58.731Z,59.93
2023-04-17T22:18:26.146Z,59.96
2023-04-17T22:20:52.611Z,59.21
2023-04-17T22:23:19.258Z,59.45
2023-04-17T22:25:45.718Z,59.77
2023-04-17T22:28:12.149Z,59.79
2023-04-17T22:30:38.746Z,59.99
2023-04-17T22:33:05.354Z,60.45
2023-04-17T22:35:31.819Z,60.33
2023-04-17T22:37:58.318Z,59.54
2023-04-17T22:40:24.827Z,59.51
2023-04-17T22:42:51.286Z,59.86
2023-04-17T22:45:17.836Z,60.83
2023-04-17T22:47:44.299Z,60.93
2023-04-17T22:50:10.817Z,60.49
2023-04-17T22:52:37.288Z,60.25
2023-04-17T22:55:04.200Z,59.59
2023-04-17T22:57:30.680Z,60.35
2023-04-17T22:59:57.205Z,60.75
2023-04-17T23:02:23.791Z,60.21
2023-04-17T23:04:50.321Z,59.64
2023-04-17T23:07:16.792Z,59.75
2023-04-17T23:09:43.268Z,60.30
2023-04-17T23:12:09.739Z,60.48
2023-04-17T23:14:36.248Z,60.70
2023-04-17T23:17:02.728Z,61.10
2023-04-17T23:19:29.242Z,60.55
2023-04-17T23:21:55.931Z,60.32
2023-04-17T23:24:22.394Z,61.00
2023-04-17T23:26:48.885Z,61.10
2023-04-17T23:29:15.315Z,60.47
2023-04-17T23:31:42.837Z,61.44
2023-04-17T23:34:09.403Z,60.55
2023-04-17T23:36:35.867Z,60.94
2023-04-17T23:39:02.316Z,60.48
2023-04-17T23:41:29.612Z,61.88
2023-04-17T23:43:56.227Z,61.91
2023-04-17T23:46:23.217Z,61.62
2023-04-17T23:48:49.882Z,62.24
2023-04-17T23:51:16.400Z,60.87
2023-04-17T23:53:42.972Z,60.42
2023-04-17T23:56:09.473Z,61.83
2023-04-17T23:58:35.975Z,61.44
